Beaver Dam, WI (53916)

10:46 PM CDT on August 28, 2015 (GMT -0500)
2 miles North of | | Change Station
CLOSE
Current Station
Personal Weather Station
Location: Beaver Dam, WI
Elevation: 889 ft
Nearby Weather Stations

Elev 889 ft 43.50 °N, 88.86 °W | Updated 3 minutes ago

Rain
Rain
58.4 °F
Feels Like 58.4 °F
N
2.0
Wind Variable Wind from ENE
Gusts 7.0 mph

Today
High -- | Low -- °F
--% Chance of Precip.
Yesterday
High -- | Low -- °F
Precip. -- in
6:14 AM 7:37 PM
Waxing Gibbous, 99% visible
Pressure 30.11 in
Visibility 7.0 miles
Clouds Scattered Clouds 4700 ft
Mostly Cloudy 6000 ft
Overcast 7000 ft
Dew Point 58 °F
Humidity 98%
Rainfall 0.51 in
Snow Depth Not available.
UV 0 out of 12
Pollen 3.70 out of 12
Air Quality Not available.
Flu Activity Not available.
METAR KUNU 290335Z AUTO 06007KT 7SM RA SCT047 BKN060 OVC070 15/13 A3011 RMK AO2 T01450132
Pressure 30.11 in
Visibility 7.0 miles
Clouds Scattered Clouds 4700 ft
Mostly Cloudy 6000 ft
Overcast 7000 ft
Dew Point 58 °F
Humidity 98%
Rainfall 0.51 in
Snow Depth Not available.
UV 0 out of 12
Pollen 3.70 out of 12
Air Quality Not available.
Flu Activity Not available.
METAR KUNU 290335Z AUTO 06007KT 7SM RA SCT047 BKN060 OVC070 15/13 A3011 RMK AO2 T01450132

10-Day Weather Forecast

×

Almanac

Astronomy

Aug. 28, 2015 Rise Set
Actual Time
Civil Twilight
Nautical Twilight
Astronomical Twilight
Moon
Length of Visible Light
Length of Day
Tomorrow will be .
, % of the Moon is Illuminated

Today's Extremes

State Highs State Lows

Community

WunderPhotos

Upload Photos

1,850,609 photos uploaded!

WunderBlogs® & News

Nearby

Air Quality

  Air Quality AQ Index Pollutant
Not available.

Snow Depth

Station Depth Elevation

Earthquake Activity

City Distance Mag. Time & Date
Minimum magnitude displayed is 2.5.

Coastal Water Temperatures

Place Temperature

Stations

Nearby Weather Stations

Station Location Temp. Windchill Dew Point Humidity Wind Precip. Elev Updated Type